createdAt,value
2023-03-26T00:00:13.000Z,0.00
2023-03-26T00:00:43.000Z,0.00
2023-03-26T00:01:13.000Z,0.00
2023-03-26T00:01:40.000Z,0.00
2023-03-26T00:02:03.000Z,0.00
2023-03-26T00:02:33.000Z,0.00
2023-03-26T00:02:50.000Z,0.00
2023-03-26T00:03:23.000Z,0.00
2023-03-26T00:03:53.000Z,0.00
2023-03-26T00:04:28.000Z,0.00
2023-03-26T00:04:53.000Z,0.00
2023-03-26T00:05:15.000Z,0.00
2023-03-26T00:05:43.000Z,0.00
2023-03-26T00:06:18.000Z,0.00
2023-03-26T00:06:43.000Z,0.00
2023-03-26T00:07:08.000Z,0.00
2023-03-26T00:07:36.000Z,0.00
2023-03-26T00:07:59.000Z,0.00
2023-03-26T00:08:28.000Z,0.00
2023-03-26T00:08:58.000Z,0.00
2023-03-26T00:09:33.000Z,0.00
2023-03-26T00:10:03.000Z,0.00
2023-03-26T00:10:33.000Z,0.00
2023-03-26T00:11:08.000Z,0.00
2023-03-26T00:11:36.000Z,0.00
2023-03-26T00:11:58.000Z,0.00
2023-03-26T00:12:28.000Z,0.00
2023-03-26T00:12:43.000Z,0.00
2023-03-26T00:13:13.000Z,0.00
2023-03-26T00:13:33.000Z,0.00
2023-03-26T00:14:04.000Z,0.00
2023-03-26T00:14:33.000Z,0.00
2023-03-26T00:14:49.000Z,0.00
2023-03-26T00:15:23.000Z,0.00
2023-03-26T00:15:38.000Z,0.00
2023-03-26T00:16:13.000Z,0.00
2023-03-26T00:16:43.000Z,0.00
2023-03-26T00:17:13.000Z,0.00
2023-03-26T00:17:39.000Z,0.00
2023-03-26T00:18:03.000Z,0.00
2023-03-26T00:18:33.000Z,0.00
2023-03-26T00:18:50.000Z,0.00
2023-03-26T00:19:23.000Z,0.00
2023-03-26T00:20:01.000Z,0.00
2023-03-26T00:20:28.000Z,0.00
2023-03-26T00:20:53.000Z,0.00
2023-03-26T00:21:15.000Z,0.00
2023-03-26T00:21:43.000Z,0.00
2023-03-26T00:22:06.000Z,0.00
2023-03-26T00:22:33.000Z,0.00
2023-03-26T00:22:59.000Z,0.00
2023-03-26T00:23:24.000Z,0.00
2023-03-26T00:23:48.000Z,0.00
2023-03-26T00:24:13.000Z,0.00
2023-03-26T00:24:38.000Z,0.00
2023-03-26T00:25:08.000Z,0.00
2023-03-26T00:25:34.000Z,0.00
2023-03-26T00:26:00.000Z,0.00
2023-03-26T00:26:38.000Z,0.00
2023-03-26T00:27:08.000Z,0.00
2023-03-26T00:27:38.000Z,0.00
2023-03-26T00:28:13.000Z,0.00
2023-03-26T00:28:43.000Z,0.00
2023-03-26T00:29:13.000Z,0.00
2023-03-26T00:29:40.000Z,0.00
2023-03-26T00:30:03.000Z,0.00
2023-03-26T00:30:33.000Z,0.00
2023-03-26T00:31:08.000Z,0.00
2023-03-26T00:31:38.000Z,0.00
2023-03-26T00:32:13.000Z,0.00
2023-03-26T00:32:44.000Z,0.00
2023-03-26T00:33:18.000Z,0.00
2023-03-26T00:33:41.000Z,0.00
2023-03-26T00:34:00.000Z,0.00
2023-03-26T00:34:28.000Z,0.00
2023-03-26T00:34:54.000Z,0.00
2023-03-26T00:35:20.000Z,0.00
2023-03-26T00:35:48.000Z,0.00
2023-03-26T00:36:13.000Z,0.00
2023-03-26T00:36:43.000Z,0.00
2023-03-26T00:37:13.000Z,0.00
2023-03-26T00:37:40.000Z,0.00
2023-03-26T00:38:03.000Z,0.00
2023-03-26T00:38:33.000Z,0.00
2023-03-26T00:39:08.000Z,0.00
2023-03-26T00:39:38.000Z,0.00
2023-03-26T00:40:13.000Z,0.00
2023-03-26T00:40:43.000Z,0.00
2023-03-26T00:41:13.000Z,0.00
2023-03-26T00:41:40.000Z,0.00
2023-03-26T00:42:13.000Z,0.00
2023-03-26T00:42:34.000Z,0.00
2023-03-26T00:43:08.000Z,0.00
2023-03-26T00:43:38.000Z,0.00
2023-03-26T00:44:13.000Z,0.00
2023-03-26T00:44:43.000Z,0.00
2023-03-26T00:45:13.000Z,0.00
2023-03-26T00:45:40.000Z,0.00
2023-03-26T00:46:03.000Z,0.00
2023-03-26T00:46:33.000Z,0.00
2023-03-26T00:47:08.000Z,0.00
2023-03-26T00:47:38.000Z,0.00
2023-03-26T00:48:13.000Z,0.00
2023-03-26T00:48:40.000Z,0.00
2023-03-26T00:48:56.000Z,0.00
2023-03-26T00:49:13.000Z,0.00
2023-03-26T00:49:41.000Z,0.00
2023-03-26T00:50:03.000Z,0.00
2023-03-26T00:50:33.000Z,0.00
2023-03-26T00:51:08.000Z,0.00
2023-03-26T00:51:38.000Z,0.00
2023-03-26T00:52:13.000Z,0.00
2023-03-26T00:52:43.000Z,0.00
2023-03-26T00:53:13.000Z,0.00
2023-03-26T00:53:40.000Z,0.00
2023-03-26T00:54:03.000Z,0.00
2023-03-26T00:54:33.000Z,0.00
2023-03-26T00:55:18.000Z,0.00
2023-03-26T00:55:48.000Z,0.00
2023-03-26T00:56:13.000Z,0.00
2023-03-26T00:56:43.000Z,0.00
2023-03-26T00:57:13.000Z,0.00
2023-03-26T00:57:40.000Z,0.00
2023-03-26T00:58:03.000Z,0.00
2023-03-26T00:58:33.000Z,0.00
2023-03-26T00:59:08.000Z,0.00
2023-03-26T00:59:38.000Z,0.00
2023-03-26T01:00:13.000Z,0.00
2023-03-26T01:00:43.000Z,0.00
2023-03-26T01:01:13.000Z,0.00
2023-03-26T01:01:40.000Z,0.00
2023-03-26T01:02:13.000Z,0.00
2023-03-26T01:02:43.000Z,0.00
2023-03-26T01:03:08.000Z,0.00
2023-03-26T01:03:36.000Z,0.00
2023-03-26T01:03:59.000Z,0.00
2023-03-26T01:04:24.000Z,0.00
2023-03-26T01:04:53.000Z,0.00
2023-03-26T01:05:23.000Z,0.00
2023-03-26T01:05:49.000Z,0.00
2023-03-26T01:06:16.000Z,0.00
2023-03-26T01:06:43.000Z,0.00
2023-03-26T01:07:08.000Z,0.00
2023-03-26T01:07:36.000Z,0.00
2023-03-26T01:07:59.000Z,0.00
2023-03-26T01:08:24.000Z,0.00
2023-03-26T01:08:53.000Z,0.00
2023-03-26T01:09:15.000Z,0.00
2023-03-26T01:09:43.000Z,0.00
2023-03-26T01:10:06.000Z,0.00
2023-03-26T01:10:33.000Z,0.00
2023-03-26T01:11:08.000Z,0.00
2023-03-26T01:11:38.000Z,0.00
2023-03-26T01:12:13.000Z,0.00
2023-03-26T01:12:43.000Z,0.00
2023-03-26T01:13:13.000Z,0.00
2023-03-26T01:13:40.000Z,0.00
2023-03-26T01:14:03.000Z,0.00
2023-03-26T01:14:34.000Z,0.00
2023-03-26T01:15:08.000Z,0.00
2023-03-26T01:15:38.000Z,0.00
2023-03-26T01:16:23.000Z,0.00
2023-03-26T01:16:53.000Z,0.00
2023-03-26T01:17:23.000Z,0.00
2023-03-26T01:17:48.000Z,0.00
2023-03-26T01:18:18.000Z,0.00
2023-03-26T01:18:43.000Z,0.00
2023-03-26T01:19:08.000Z,0.00
2023-03-26T01:19:38.000Z,0.00
2023-03-26T01:20:13.000Z,0.00
2023-03-26T01:20:43.000Z,0.00
2023-03-26T01:21:13.000Z,0.00
2023-03-26T01:21:40.000Z,0.00
2023-03-26T01:22:03.000Z,0.00
2023-03-26T01:22:33.000Z,0.00
2023-03-26T01:23:08.000Z,0.00
2023-03-26T01:23:36.000Z,0.00
2023-03-26T01:23:59.000Z,0.00
2023-03-26T01:24:29.000Z,0.00
2023-03-26T01:24:53.000Z,0.00
2023-03-26T01:25:15.000Z,0.00
2023-03-26T01:25:43.000Z,0.00
2023-03-26T01:26:05.000Z,0.00
2023-03-26T01:26:34.000Z,0.00
2023-03-26T01:27:08.000Z,0.00
2023-03-26T01:27:48.000Z,0.00
2023-03-26T01:28:13.000Z,0.00
2023-03-26T01:28:38.000Z,0.00
2023-03-26T01:29:08.000Z,0.00
2023-03-26T01:29:34.000Z,0.00
2023-03-26T01:30:00.000Z,0.00
2023-03-26T01:30:28.000Z,0.00
2023-03-26T01:30:55.000Z,0.00
2023-03-26T01:31:24.000Z,0.00
2023-03-26T01:31:48.000Z,0.00
2023-03-26T01:32:13.000Z,0.00
2023-03-26T01:32:38.000Z,0.00
2023-03-26T01:32:58.000Z,0.00
2023-03-26T01:33:43.000Z,0.00
2023-03-26T01:34:13.000Z,0.00
2023-03-26T01:34:33.000Z,0.00
2023-03-26T01:35:08.000Z,0.00
2023-03-26T01:35:38.000Z,0.00
2023-03-26T01:36:13.000Z,0.00
2023-03-26T01:36:43.000Z,0.00
2023-03-26T01:37:13.000Z,0.00
2023-03-26T01:37:40.000Z,0.00
2023-03-26T01:38:03.000Z,0.00
2023-03-26T01:38:38.000Z,0.00
2023-03-26T01:39:08.000Z,0.00
2023-03-26T01:39:38.000Z,0.00
2023-03-26T01:40:13.000Z,0.00
2023-03-26T01:40:43.000Z,0.00
2023-03-26T01:41:13.000Z,0.00
2023-03-26T01:41:40.000Z,0.00
2023-03-26T01:42:03.000Z,0.00
2023-03-26T01:42:33.000Z,0.00
2023-03-26T01:42:50.000Z,0.00
2023-03-26T01:43:23.000Z,0.00
2023-03-26T01:43:44.000Z,0.00
2023-03-26T01:44:13.000Z,0.00
2023-03-26T01:44:53.000Z,0.00
2023-03-26T01:45:16.000Z,0.00
2023-03-26T01:45:43.000Z,0.00
2023-03-26T01:46:03.000Z,0.00
2023-03-26T01:46:33.000Z,0.00
2023-03-26T01:47:08.000Z,0.00
2023-03-26T01:47:38.000Z,0.00
2023-03-26T01:48:13.000Z,0.00
2023-03-26T01:48:43.000Z,0.00
2023-03-26T01:49:13.000Z,0.00
2023-03-26T01:49:40.000Z,0.00
2023-03-26T01:50:03.000Z,0.00
2023-03-26T01:50:33.000Z,0.00
2023-03-26T01:51:08.000Z,0.00
2023-03-26T01:51:39.000Z,0.00
2023-03-26T01:52:13.000Z,0.00
2023-03-26T01:52:43.000Z,0.00
2023-03-26T01:53:13.000Z,0.00
2023-03-26T01:53:40.000Z,0.00
2023-03-26T01:54:04.000Z,0.00
2023-03-26T01:54:33.000Z,0.00
2023-03-26T01:55:08.000Z,0.00
2023-03-26T01:55:38.000Z,0.00
2023-03-26T01:56:13.000Z,0.00
2023-03-26T01:56:43.000Z,0.00
2023-03-26T01:57:13.000Z,0.00
2023-03-26T01:57:40.000Z,0.00
2023-03-26T01:58:00.000Z,0.00
2023-03-26T01:58:28.000Z,0.00
2023-03-26T01:58:55.000Z,0.00
2023-03-26T01:59:20.000Z,0.00
2023-03-26T01:59:48.000Z,0.00
2023-03-26T02:00:13.000Z,0.00
2023-03-26T02:00:43.000Z,0.00
2023-03-26T02:01:13.000Z,0.00
2023-03-26T02:01:40.000Z,0.00
2023-03-26T02:02:03.000Z,0.00
2023-03-26T02:02:33.000Z,0.00
2023-03-26T02:03:08.000Z,0.00
2023-03-26T02:03:38.000Z,0.00
2023-03-26T02:04:13.000Z,0.00
2023-03-26T02:04:43.000Z,0.00
2023-03-26T02:05:13.000Z,0.00
2023-03-26T02:05:40.000Z,0.00
2023-03-26T02:06:03.000Z,0.00
2023-03-26T02:06:43.000Z,0.00
2023-03-26T02:07:08.000Z,0.00
2023-03-26T02:07:38.000Z,0.00
2023-03-26T02:08:13.000Z,0.00
2023-03-26T02:08:43.000Z,0.00
2023-03-26T02:09:13.000Z,0.00
2023-03-26T02:09:40.000Z,0.00
2023-03-26T02:10:03.000Z,0.00
2023-03-26T02:10:33.000Z,0.00
2023-03-26T02:11:08.000Z,0.00
2023-03-26T02:11:38.000Z,0.00
2023-03-26T02:12:13.000Z,0.00
2023-03-26T02:12:44.000Z,0.00
2023-03-26T02:13:18.000Z,0.00
2023-03-26T02:13:41.000Z,0.00
2023-03-26T02:14:00.000Z,0.00
2023-03-26T02:14:28.000Z,0.00
2023-03-26T02:14:54.000Z,0.00
2023-03-26T02:15:20.000Z,0.00
2023-03-26T02:15:48.000Z,0.00
2023-03-26T02:16:13.000Z,0.00
2023-03-26T02:16:38.000Z,0.00
2023-03-26T02:17:08.000Z,0.00
2023-03-26T02:17:34.000Z,0.00
2023-03-26T02:18:00.000Z,0.00
2023-03-26T02:18:28.000Z,0.00
2023-03-26T02:18:54.000Z,0.00
2023-03-26T02:19:24.000Z,0.00
2023-03-26T02:19:59.000Z,0.00
2023-03-26T02:20:28.000Z,0.00
2023-03-26T02:20:58.000Z,0.00
2023-03-26T02:21:33.000Z,0.00
2023-03-26T02:22:03.000Z,0.00
2023-03-26T02:22:33.000Z,0.00
2023-03-26T02:23:08.000Z,0.00
2023-03-26T02:23:38.000Z,0.00
2023-03-26T02:24:13.000Z,0.00
2023-03-26T02:24:43.000Z,0.00
2023-03-26T02:25:23.000Z,0.00
2023-03-26T02:25:48.000Z,0.00
2023-03-26T02:26:18.000Z,0.00
2023-03-26T02:26:43.000Z,0.00
2023-03-26T02:27:08.000Z,0.00
2023-03-26T02:27:38.000Z,0.00
2023-03-26T02:28:13.000Z,0.00
2023-03-26T02:28:43.000Z,0.00
2023-03-26T02:29:13.000Z,0.00
2023-03-26T02:29:40.000Z,0.00
2023-03-26T02:30:03.000Z,0.00
2023-03-26T02:30:33.000Z,0.00
2023-03-26T02:31:08.000Z,0.00
2023-03-26T02:31:48.000Z,0.00
2023-03-26T02:32:13.000Z,0.00
2023-03-26T02:32:38.000Z,0.00
2023-03-26T02:32:58.000Z,0.00
2023-03-26T02:33:33.000Z,0.00
2023-03-26T02:34:03.000Z,0.00
2023-03-26T02:34:33.000Z,0.00
2023-03-26T02:35:08.000Z,0.00
2023-03-26T02:35:38.000Z,0.00
2023-03-26T02:36:13.000Z,0.00
2023-03-26T02:36:43.000Z,0.00
2023-03-26T02:37:13.000Z,0.00
2023-03-26T02:37:40.000Z,0.00
2023-03-26T02:38:03.000Z,0.00
2023-03-26T02:38:43.000Z,0.00
2023-03-26T02:39:08.000Z,0.00
2023-03-26T02:39:36.000Z,0.00
2023-03-26T02:39:59.000Z,0.00
2023-03-26T02:40:24.000Z,0.00
2023-03-26T02:40:53.000Z,0.00
2023-03-26T02:41:16.000Z,0.00
2023-03-26T02:41:43.000Z,0.00
2023-03-26T02:42:06.000Z,0.00
2023-03-26T02:42:33.000Z,0.00
2023-03-26T02:42:59.000Z,0.00
2023-03-26T02:43:24.000Z,0.00
2023-03-26T02:43:48.000Z,0.00
2023-03-26T02:44:13.000Z,0.00
2023-03-26T02:44:43.000Z,0.00
2023-03-26T02:45:13.000Z,0.00
2023-03-26T02:45:39.000Z,0.00
2023-03-26T02:46:03.000Z,0.00
2023-03-26T02:46:34.000Z,0.00
2023-03-26T02:47:08.000Z,0.00
2023-03-26T02:47:38.000Z,0.00
2023-03-26T02:48:13.000Z,0.00
2023-03-26T02:48:43.000Z,0.00
2023-03-26T02:49:13.000Z,0.00
2023-03-26T02:49:39.000Z,0.00
2023-03-26T02:50:00.000Z,0.00
2023-03-26T02:50:28.000Z,0.00
2023-03-26T02:50:54.000Z,0.00
2023-03-26T02:51:20.000Z,0.00
2023-03-26T02:51:48.000Z,0.00
2023-03-26T02:52:13.000Z,0.00
2023-03-26T02:52:38.000Z,0.00
2023-03-26T02:53:08.000Z,0.00
2023-03-26T02:53:34.000Z,0.00
2023-03-26T02:54:03.000Z,0.00
2023-03-26T02:54:33.000Z,0.00
2023-03-26T02:55:09.000Z,0.00
2023-03-26T02:55:38.000Z,0.00
2023-03-26T02:56:13.000Z,0.00
2023-03-26T02:56:43.000Z,0.00
2023-03-26T02:57:13.000Z,0.00
2023-03-26T02:57:33.000Z,0.00
2023-03-26T02:58:03.000Z,0.00
2023-03-26T02:58:33.000Z,0.00
2023-03-26T02:58:50.000Z,0.00
2023-03-26T02:59:33.000Z,0.00
2023-03-26T02:59:58.000Z,0.00
2023-03-26T03:00:28.000Z,0.00
2023-03-26T03:00:43.000Z,0.00
2023-03-26T03:01:13.000Z,0.00
2023-03-26T03:01:40.000Z,0.00
2023-03-26T03:02:03.000Z,0.00
2023-03-26T03:02:33.000Z,0.00
2023-03-26T03:02:50.000Z,0.00
2023-03-26T03:03:23.000Z,0.00
2023-03-26T03:03:58.000Z,0.00
2023-03-26T03:04:28.000Z,0.00
2023-03-26T03:04:58.000Z,0.00
2023-03-26T03:05:33.000Z,0.00
2023-03-26T03:06:03.000Z,0.00
2023-03-26T03:06:33.000Z,0.00
2023-03-26T03:06:49.000Z,0.00
2023-03-26T03:07:23.000Z,0.00
2023-03-26T03:07:45.000Z,0.00
2023-03-26T03:08:13.000Z,0.00
2023-03-26T03:08:43.000Z,0.00
2023-03-26T03:09:13.000Z,0.00
2023-03-26T03:09:40.000Z,0.00
2023-03-26T03:10:03.000Z,0.00
2023-03-26T03:10:33.000Z,0.00
2023-03-26T03:11:08.000Z,0.00
2023-03-26T03:11:48.000Z,0.00
2023-03-26T03:12:13.000Z,0.00
2023-03-26T03:12:43.000Z,0.00
2023-03-26T03:13:13.000Z,0.00
2023-03-26T03:13:40.000Z,0.00
2023-03-26T03:14:03.000Z,0.00
2023-03-26T03:14:33.000Z,0.00
2023-03-26T03:15:08.000Z,0.00
2023-03-26T03:15:48.000Z,0.00
2023-03-26T03:16:13.000Z,0.00
2023-03-26T03:16:43.000Z,0.00
2023-03-26T03:17:13.000Z,0.00
2023-03-26T03:17:40.000Z,0.00
2023-03-26T03:18:03.000Z,0.00
2023-03-26T03:18:38.000Z,0.00
2023-03-26T03:19:18.000Z,0.00
2023-03-26T03:19:48.000Z,0.00
2023-03-26T03:20:13.000Z,0.00
2023-03-26T03:20:38.000Z,0.00
2023-03-26T03:21:08.000Z,0.00
2023-03-26T03:21:34.000Z,0.00
2023-03-26T03:22:00.000Z,0.00
2023-03-26T03:22:28.000Z,0.00
2023-03-26T03:22:55.000Z,0.00
2023-03-26T03:23:20.000Z,0.00
2023-03-26T03:23:48.000Z,0.00
2023-03-26T03:24:13.000Z,0.00
2023-03-26T03:24:38.000Z,0.00
2023-03-26T03:24:58.000Z,0.00
2023-03-26T03:25:33.000Z,0.00
2023-03-26T03:26:03.000Z,0.00
2023-03-26T03:26:33.000Z,0.00
2023-03-26T03:27:08.000Z,0.00
2023-03-26T03:27:38.000Z,0.00
2023-03-26T03:28:13.000Z,0.00
2023-03-26T03:28:43.000Z,0.00
2023-03-26T03:29:13.000Z,0.00
2023-03-26T03:29:40.000Z,0.00
2023-03-26T03:30:03.000Z,0.00
2023-03-26T03:30:33.000Z,0.00
2023-03-26T03:31:18.000Z,0.00
2023-03-26T03:31:39.000Z,0.00
2023-03-26T03:32:13.000Z,0.00
2023-03-26T03:32:43.000Z,0.00
2023-03-26T03:33:13.000Z,0.00
2023-03-26T03:33:40.000Z,0.00
2023-03-26T03:34:03.000Z,0.00
2023-03-26T03:34:33.000Z,0.00
2023-03-26T03:35:08.000Z,0.00
2023-03-26T03:35:38.000Z,0.00
2023-03-26T03:36:13.000Z,0.00
2023-03-26T03:36:43.000Z,0.00
2023-03-26T03:37:13.000Z,0.00
2023-03-26T03:37:39.000Z,0.00
2023-03-26T03:38:03.000Z,0.00
2023-03-26T03:38:33.000Z,0.00
2023-03-26T03:39:08.000Z,0.00
2023-03-26T03:39:38.000Z,0.00
2023-03-26T03:40:13.000Z,0.00
2023-03-26T03:40:43.000Z,0.00
2023-03-26T03:41:13.000Z,0.00
2023-03-26T03:41:40.000Z,0.00
2023-03-26T03:42:03.000Z,0.00
2023-03-26T03:42:33.000Z,0.00
2023-03-26T03:43:08.000Z,0.00
2023-03-26T03:43:48.000Z,0.00
2023-03-26T03:44:13.000Z,0.00
2023-03-26T03:44:43.000Z,0.00
2023-03-26T03:45:13.000Z,0.00
2023-03-26T03:45:39.000Z,0.00
2023-03-26T03:46:03.000Z,0.00
2023-03-26T03:46:33.000Z,0.00
2023-03-26T03:47:08.000Z,0.00
2023-03-26T03:47:38.000Z,0.00
2023-03-26T03:48:13.000Z,0.00
2023-03-26T03:48:43.000Z,0.00
2023-03-26T03:49:13.000Z,0.00
2023-03-26T03:49:40.000Z,0.00
2023-03-26T03:50:03.000Z,0.00
2023-03-26T03:50:43.000Z,0.00
2023-03-26T03:51:08.000Z,0.00
2023-03-26T03:51:38.000Z,0.00
2023-03-26T03:52:13.000Z,0.00
2023-03-26T03:52:43.000Z,0.00
2023-03-26T03:53:13.000Z,0.00
2023-03-26T03:53:40.000Z,0.00
2023-03-26T03:54:03.000Z,0.00
2023-03-26T03:54:33.000Z,0.00
2023-03-26T03:55:08.000Z,0.00
2023-03-26T03:55:38.000Z,0.00
2023-03-26T03:56:13.000Z,0.00
2023-03-26T03:56:44.000Z,0.00
2023-03-26T03:57:18.000Z,0.00
2023-03-26T03:57:41.000Z,0.00
2023-03-26T03:58:00.000Z,0.00
2023-03-26T03:58:28.000Z,0.00
2023-03-26T03:58:55.000Z,0.00
2023-03-26T03:59:23.000Z,0.00
2023-03-26T03:59:58.000Z,0.00
2023-03-26T04:00:28.000Z,0.00
2023-03-26T04:00:58.000Z,0.00
2023-03-26T04:01:33.000Z,0.00
2023-03-26T04:02:03.000Z,0.00
2023-03-26T04:02:33.000Z,0.00
2023-03-26T04:03:08.000Z,0.00
2023-03-26T04:03:38.000Z,0.00
2023-03-26T04:04:13.000Z,0.00
2023-03-26T04:04:43.000Z,0.00
2023-03-26T04:05:13.000Z,0.00
2023-03-26T04:05:40.000Z,0.00
2023-03-26T04:06:03.000Z,0.00
2023-03-26T04:06:33.000Z,0.00
2023-03-26T04:07:08.000Z,0.00
2023-03-26T04:07:38.000Z,0.00
2023-03-26T04:08:13.000Z,0.00
2023-03-26T04:08:43.000Z,0.00
2023-03-26T04:09:13.000Z,0.00
2023-03-26T04:09:40.000Z,0.00
2023-03-26T04:10:03.000Z,0.00
2023-03-26T04:10:33.000Z,0.00
2023-03-26T04:11:18.000Z,0.00
2023-03-26T04:11:48.000Z,0.00
2023-03-26T04:12:13.000Z,0.00
2023-03-26T04:12:38.000Z,0.00
2023-03-26T04:13:08.000Z,0.00
2023-03-26T04:13:34.000Z,0.00
2023-03-26T04:14:00.000Z,0.00
2023-03-26T04:14:28.000Z,0.00
2023-03-26T04:14:54.000Z,0.00
2023-03-26T04:15:20.000Z,0.00
2023-03-26T04:15:48.000Z,0.00
2023-03-26T04:16:13.000Z,0.00
2023-03-26T04:16:38.000Z,0.00
2023-03-26T04:17:08.000Z,0.00
2023-03-26T04:17:34.000Z,0.00
2023-03-26T04:18:00.000Z,0.00
2023-03-26T04:18:33.000Z,0.00
2023-03-26T04:19:08.000Z,0.00
2023-03-26T04:19:38.000Z,0.00
2023-03-26T04:20:13.000Z,0.00
2023-03-26T04:20:43.000Z,0.00
2023-03-26T04:21:13.000Z,0.00
2023-03-26T04:21:40.000Z,0.00
2023-03-26T04:22:03.000Z,0.00
2023-03-26T04:22:33.000Z,0.00
2023-03-26T04:23:09.000Z,0.00
2023-03-26T04:23:38.000Z,0.00
2023-03-26T04:24:13.000Z,0.00
2023-03-26T04:24:43.000Z,0.00
2023-03-26T04:25:14.000Z,0.00
2023-03-26T04:25:40.000Z,0.00
2023-03-26T04:26:03.000Z,0.00
2023-03-26T04:26:33.000Z,0.00
2023-03-26T04:27:08.000Z,0.00
2023-03-26T04:27:38.000Z,0.00
2023-03-26T04:28:13.000Z,0.00
2023-03-26T04:28:43.000Z,0.00
2023-03-26T04:29:13.000Z,0.00
2023-03-26T04:29:40.000Z,0.00
2023-03-26T04:30:03.000Z,0.00
2023-03-26T04:30:33.000Z,0.00
2023-03-26T04:31:08.000Z,0.00
2023-03-26T04:31:38.000Z,0.00
2023-03-26T04:32:13.000Z,0.00
2023-03-26T04:32:43.000Z,0.00
2023-03-26T04:33:13.000Z,0.00
2023-03-26T04:33:40.000Z,0.00
2023-03-26T04:34:04.000Z,0.00
2023-03-26T04:34:33.000Z,0.00
2023-03-26T04:35:08.000Z,0.00
2023-03-26T04:35:38.000Z,0.00
2023-03-26T04:36:13.000Z,0.00
2023-03-26T04:36:38.000Z,0.00
2023-03-26T04:36:58.000Z,0.00
2023-03-26T04:37:33.000Z,0.00
2023-03-26T04:38:03.000Z,0.00
2023-03-26T04:38:33.000Z,0.00
2023-03-26T04:39:08.000Z,0.00
2023-03-26T04:39:38.000Z,0.00
2023-03-26T04:40:14.000Z,0.00
2023-03-26T04:40:43.000Z,0.00
2023-03-26T04:41:13.000Z,0.00
2023-03-26T04:41:40.000Z,0.00
2023-03-26T04:42:03.000Z,0.00
2023-03-26T04:42:43.000Z,0.00
2023-03-26T04:43:08.000Z,0.00
2023-03-26T04:43:38.000Z,0.00
2023-03-26T04:44:13.000Z,0.00
2023-03-26T04:44:43.000Z,0.00
2023-03-26T04:45:13.000Z,0.00
2023-03-26T04:45:40.000Z,0.00
2023-03-26T04:46:03.000Z,0.00
2023-03-26T04:46:33.000Z,0.00
2023-03-26T04:47:08.000Z,0.00
2023-03-26T04:47:38.000Z,0.00
2023-03-26T04:48:13.000Z,0.00
2023-03-26T04:48:43.000Z,0.00
2023-03-26T04:49:14.000Z,0.00
2023-03-26T04:49:43.000Z,0.00
2023-03-26T04:50:06.000Z,0.00
2023-03-26T04:50:33.000Z,0.00
2023-03-26T04:51:08.000Z,0.00
2023-03-26T04:51:38.000Z,0.00
2023-03-26T04:52:13.000Z,0.00
2023-03-26T04:52:43.000Z,0.00
2023-03-26T04:53:13.000Z,0.00
2023-03-26T04:53:39.000Z,0.00
2023-03-26T04:54:03.000Z,0.00
2023-03-26T04:54:33.000Z,0.00
2023-03-26T04:55:08.000Z,0.00
2023-03-26T04:55:38.000Z,0.00
2023-03-26T04:56:13.000Z,0.00
2023-03-26T04:56:38.000Z,0.00
2023-03-26T04:57:08.000Z,0.00
2023-03-26T04:57:34.000Z,0.00
2023-03-26T04:58:00.000Z,0.00
2023-03-26T04:58:38.000Z,0.00
2023-03-26T04:59:18.000Z,0.00
2023-03-26T04:59:48.000Z,0.00
2023-03-26T05:00:13.000Z,0.00
2023-03-26T05:00:38.000Z,0.00
2023-03-26T05:01:08.000Z,0.00
2023-03-26T05:01:34.000Z,0.00
2023-03-26T05:02:00.000Z,0.00
2023-03-26T05:02:28.000Z,0.00
2023-03-26T05:02:54.000Z,0.00
2023-03-26T05:03:23.000Z,0.00
2023-03-26T05:03:48.000Z,0.00
2023-03-26T05:04:13.000Z,0.00
2023-03-26T05:04:38.000Z,0.00
2023-03-26T05:04:59.000Z,0.00
2023-03-26T05:05:33.000Z,0.00
2023-03-26T05:06:03.000Z,0.00
2023-03-26T05:06:33.000Z,0.00
2023-03-26T05:07:08.000Z,0.00
2023-03-26T05:07:38.000Z,0.00
2023-03-26T05:08:13.000Z,0.00
2023-03-26T05:08:43.000Z,0.00
2023-03-26T05:09:13.000Z,0.00
2023-03-26T05:09:41.000Z,0.00
2023-03-26T05:10:03.000Z,0.00
2023-03-26T05:10:33.000Z,0.00
2023-03-26T05:11:08.000Z,0.36
2023-03-26T05:11:38.000Z,0.00
2023-03-26T05:12:13.000Z,0.00
2023-03-26T05:12:43.000Z,0.00
2023-03-26T05:13:18.000Z,0.00
2023-03-26T05:13:39.000Z,0.00
2023-03-26T05:14:03.000Z,0.00
2023-03-26T05:14:33.000Z,0.00
2023-03-26T05:15:08.000Z,0.85
2023-03-26T05:15:38.000Z,0.36
2023-03-26T05:16:13.000Z,0.85
2023-03-26T05:16:44.000Z,0.85
2023-03-26T05:17:18.000Z,0.85
2023-03-26T05:17:41.000Z,1.22
2023-03-26T05:18:00.000Z,1.22
2023-03-26T05:18:28.000Z,1.71
2023-03-26T05:18:54.000Z,0.85
2023-03-26T05:19:20.000Z,2.08
2023-03-26T05:19:48.000Z,1.71
2023-03-26T05:20:13.000Z,1.71
2023-03-26T05:20:38.000Z,1.22
2023-03-26T05:21:08.000Z,2.08
2023-03-26T05:21:34.000Z,2.57
2023-03-26T05:22:00.000Z,2.08
2023-03-26T05:22:38.000Z,2.08
2023-03-26T05:23:18.000Z,1.71
2023-03-26T05:23:38.000Z,2.57
2023-03-26T05:24:13.000Z,1.71
2023-03-26T05:24:43.000Z,2.08
2023-03-26T05:25:13.000Z,2.94
2023-03-26T05:25:40.000Z,2.94
2023-03-26T05:26:03.000Z,2.57
2023-03-26T05:26:33.000Z,2.94
2023-03-26T05:27:08.000Z,2.94
2023-03-26T05:27:38.000Z,2.57
2023-03-26T05:28:14.000Z,2.94
2023-03-26T05:28:43.000Z,2.94
2023-03-26T05:29:13.000Z,3.43
2023-03-26T05:29:39.000Z,2.57
2023-03-26T05:30:00.000Z,3.43
2023-03-26T05:30:28.000Z,3.43
2023-03-26T05:30:54.000Z,2.94
2023-03-26T05:31:20.000Z,3.43
2023-03-26T05:31:48.000Z,4.28
2023-03-26T05:32:13.000Z,3.43
2023-03-26T05:32:38.000Z,3.79
2023-03-26T05:33:08.000Z,3.79
2023-03-26T05:33:34.000Z,4.28
2023-03-26T05:34:00.000Z,3.79
2023-03-26T05:34:38.000Z,3.79
2023-03-26T05:35:18.000Z,3.79
2023-03-26T05:35:48.000Z,4.28
2023-03-26T05:36:13.000Z,4.28
2023-03-26T05:36:43.000Z,4.77
2023-03-26T05:37:13.000Z,5.14
2023-03-26T05:37:40.000Z,5.14
2023-03-26T05:38:03.000Z,4.77
2023-03-26T05:38:33.000Z,5.14
2023-03-26T05:39:08.000Z,5.14
2023-03-26T05:39:38.000Z,5.63
2023-03-26T05:40:13.000Z,5.63
2023-03-26T05:40:43.000Z,5.99
2023-03-26T05:41:13.000Z,5.63
2023-03-26T05:41:40.000Z,5.63
2023-03-26T05:42:13.000Z,6.85
2023-03-26T05:42:43.000Z,5.99
2023-03-26T05:43:08.000Z,5.99
2023-03-26T05:43:36.000Z,6.85
2023-03-26T05:43:59.000Z,6.48
2023-03-26T05:44:28.000Z,6.48
2023-03-26T05:44:53.000Z,7.34
2023-03-26T05:45:16.000Z,7.34
2023-03-26T05:45:43.000Z,7.70
2023-03-26T05:46:03.000Z,8.19
2023-03-26T05:46:33.000Z,8.19
2023-03-26T05:47:08.000Z,8.19
2023-03-26T05:47:38.000Z,8.19
2023-03-26T05:48:13.000Z,8.19
2023-03-26T05:48:43.000Z,8.56
2023-03-26T05:49:13.000Z,9.54
2023-03-26T05:49:41.000Z,9.05
2023-03-26T05:50:03.000Z,9.54
2023-03-26T05:50:33.000Z,9.91
2023-03-26T05:51:08.000Z,9.54
2023-03-26T05:51:36.000Z,10.39
2023-03-26T05:51:58.000Z,9.91
2023-03-26T05:52:28.000Z,9.91
2023-03-26T05:52:58.000Z,10.77
2023-03-26T05:53:33.000Z,10.39
2023-03-26T05:54:03.000Z,10.77
2023-03-26T05:54:33.000Z,9.91
2023-03-26T05:55:08.000Z,10.39
2023-03-26T05:55:38.000Z,10.77
2023-03-26T05:56:13.000Z,10.77
2023-03-26T05:56:43.000Z,10.77
2023-03-26T05:57:23.000Z,11.25
2023-03-26T05:57:49.000Z,10.77
2023-03-26T05:58:16.000Z,10.77
2023-03-26T05:58:43.000Z,10.39
2023-03-26T05:59:08.000Z,10.77
2023-03-26T05:59:36.000Z,11.62
2023-03-26T05:59:59.000Z,12.11
2023-03-26T06:00:24.000Z,12.11
2023-03-26T06:00:53.000Z,10.39
2023-03-26T06:01:23.000Z,11.25
2023-03-26T06:01:49.000Z,10.77
2023-03-26T06:02:16.000Z,11.25
2023-03-26T06:02:43.000Z,11.25
2023-03-26T06:03:08.000Z,11.62
2023-03-26T06:03:38.000Z,11.62
2023-03-26T06:04:28.000Z,11.25
2023-03-26T06:04:58.000Z,12.48
2023-03-26T06:05:33.000Z,12.97
2023-03-26T06:06:03.000Z,12.48
2023-03-26T06:06:33.000Z,13.33
2023-03-26T06:07:08.000Z,12.48
2023-03-26T06:07:38.000Z,13.33
2023-03-26T06:08:13.000Z,13.82
2023-03-26T06:08:43.000Z,14.31
2023-03-26T06:09:13.000Z,14.68
2023-03-26T06:09:40.000Z,14.31
2023-03-26T06:10:03.000Z,14.68
2023-03-26T06:10:38.000Z,14.31
2023-03-26T06:11:18.000Z,15.53
2023-03-26T06:11:48.000Z,15.53
2023-03-26T06:12:13.000Z,16.02
2023-03-26T06:12:38.000Z,15.17
2023-03-26T06:13:08.000Z,16.02
2023-03-26T06:13:34.000Z,16.02
2023-03-26T06:14:00.000Z,15.53
2023-03-26T06:14:28.000Z,15.17
2023-03-26T06:14:54.000Z,15.53
2023-03-26T06:15:20.000Z,15.53
2023-03-26T06:15:48.000Z,14.68
2023-03-26T06:16:32.000Z,15.53
2023-03-26T06:16:59.000Z,15.53
2023-03-26T06:17:33.000Z,16.02
2023-03-26T06:18:13.000Z,16.02
2023-03-26T06:18:43.000Z,16.39
2023-03-26T06:19:08.000Z,16.39
2023-03-26T06:19:36.000Z,17.25
2023-03-26T06:19:58.000Z,16.88
2023-03-26T06:20:28.000Z,17.25
2023-03-26T06:20:58.000Z,18.60
2023-03-26T06:21:33.000Z,19.94
2023-03-26T06:22:03.000Z,19.45
2023-03-26T06:22:33.000Z,20.31
2023-03-26T06:23:08.000Z,20.31
2023-03-26T06:23:38.000Z,21.16
2023-03-26T06:24:13.000Z,21.16
2023-03-26T06:24:43.000Z,21.16
2023-03-26T06:25:13.000Z,21.16
2023-03-26T06:25:39.000Z,21.16